createdAt,value
2018-04-12T00:01:49.937Z,98935.31
2018-04-12T00:04:17.696Z,98926.79
2018-04-12T00:06:45.338Z,98924.63
2018-04-12T00:09:13.123Z,98932.00
2018-04-12T00:11:40.879Z,98932.24
2018-04-12T00:14:08.496Z,98931.17
2018-04-12T00:16:36.205Z,98921.27
2018-04-12T00:19:03.871Z,98915.86
2018-04-12T00:21:31.740Z,98913.74
2018-04-12T00:23:59.453Z,98902.02
2018-04-12T00:26:27.375Z,98901.93
2018-04-12T00:28:55.140Z,98897.20
2018-04-12T00:31:23.205Z,98897.58
2018-04-12T00:33:51.037Z,98890.98
2018-04-12T00:36:18.886Z,98880.65
2018-04-12T00:38:46.616Z,98886.06
2018-04-12T00:41:14.543Z,98871.23
2018-04-12T00:43:42.444Z,98876.39
2018-04-12T00:46:10.297Z,98863.27
2018-04-12T00:48:37.969Z,98866.55
2018-04-12T00:51:05.727Z,98870.34
2018-04-12T00:53:45.271Z,98863.98
2018-04-12T00:56:13.139Z,98858.44
2018-04-12T00:58:40.904Z,98854.93
2018-04-12T01:01:08.771Z,98851.02
2018-04-12T01:03:36.489Z,98851.76
2018-04-12T01:06:04.232Z,98845.17
2018-04-12T01:08:32.065Z,98844.41
2018-04-12T01:10:59.827Z,98842.02
2018-04-12T01:13:27.530Z,98841.61
2018-04-12T01:15:55.459Z,98834.33
2018-04-12T01:18:23.293Z,98837.52
2018-04-12T01:20:51.092Z,98835.34
2018-04-12T01:23:18.885Z,98826.27
2018-04-12T01:25:46.617Z,98826.67
2018-04-12T01:28:14.389Z,98823.23
2018-04-12T01:30:42.357Z,98821.87
2018-04-12T01:33:16.054Z,98826.51
2018-04-12T01:35:43.824Z,98826.37
2018-04-12T01:38:11.546Z,98816.66
2018-04-12T01:40:39.352Z,98818.23
2018-04-12T01:43:07.107Z,98805.81
2018-04-12T01:45:34.983Z,98806.37
2018-04-12T01:48:02.638Z,98794.31
2018-04-12T01:50:30.476Z,98789.49
2018-04-12T01:52:58.276Z,98785.02
2018-04-12T01:55:26.143Z,98778.85
2018-04-12T01:57:53.805Z,98769.38
2018-04-12T02:00:21.672Z,98766.86
2018-04-12T02:02:49.388Z,98767.81
2018-04-12T02:05:17.151Z,98756.47
2018-04-12T02:07:44.863Z,98754.99
2018-04-12T02:10:12.684Z,98751.39
2018-04-12T02:12:40.601Z,98755.27
2018-04-12T02:15:08.464Z,98745.23
2018-04-12T02:17:36.157Z,98744.83
2018-04-12T02:20:03.989Z,98741.16
2018-04-12T02:22:31.759Z,98739.88
2018-04-12T02:24:59.521Z,98749.77
2018-04-12T02:27:27.286Z,98740.11
2018-04-12T02:29:55.114Z,98751.31
2018-04-12T02:32:22.813Z,98748.89
2018-04-12T02:34:50.526Z,98743.50
2018-04-12T02:37:18.246Z,98752.00
2018-04-12T02:39:45.954Z,98748.22
2018-04-12T02:42:13.772Z,98751.17
2018-04-12T02:44:41.498Z,98749.23
2018-04-12T02:47:09.300Z,98753.52
2018-04-12T02:49:37.024Z,98752.41
2018-04-12T02:52:04.832Z,98748.06
2018-04-12T02:54:32.593Z,98754.21
2018-04-12T02:57:00.569Z,98753.89
2018-04-12T02:59:28.220Z,98745.80
2018-04-12T03:01:56.091Z,98750.54
2018-04-12T03:04:23.823Z,98743.75
2018-04-12T03:06:51.565Z,98744.48
2018-04-12T03:09:19.283Z,98735.23
2018-04-12T03:11:47.169Z,98739.29
2018-04-12T03:14:14.973Z,98732.34
2018-04-12T03:16:42.781Z,98730.09
2018-04-12T03:19:10.440Z,98731.52
2018-04-12T03:21:38.224Z,98718.55
2018-04-12T03:24:05.970Z,98712.53
2018-04-12T03:26:33.697Z,98711.38
2018-04-12T03:29:01.608Z,98706.19
2018-04-12T03:31:29.363Z,98696.45
2018-04-12T03:33:57.121Z,98692.81
2018-04-12T03:36:24.859Z,98690.02
2018-04-12T03:38:52.614Z,98682.56
2018-04-12T03:41:20.426Z,98677.60
2018-04-12T03:43:48.244Z,98667.25
2018-04-12T03:46:16.013Z,98666.75
2018-04-12T03:48:44.098Z,98658.30
2018-04-12T03:51:11.679Z,98653.66
2018-04-12T03:53:39.659Z,98653.75
2018-04-12T03:56:07.370Z,98662.61
2018-04-12T03:58:35.187Z,98665.80
2018-04-12T04:01:02.952Z,98668.08
2018-04-12T04:03:30.801Z,98670.98
2018-04-12T04:05:58.786Z,98670.02
2018-04-12T04:08:26.559Z,98669.42
2018-04-12T04:10:54.213Z,98673.48
2018-04-12T04:13:22.082Z,98669.08
2018-04-12T04:16:01.651Z,98673.22
2018-04-12T04:18:41.365Z,98670.09
2018-04-12T04:21:09.234Z,98674.13
2018-04-12T04:23:37.099Z,98675.78
2018-04-12T04:26:04.822Z,98667.57
2018-04-12T04:28:32.731Z,98666.66
2018-04-12T04:31:00.599Z,98666.85
2018-04-12T04:33:28.364Z,98666.58
2018-04-12T04:35:56.124Z,98675.96
2018-04-12T04:38:23.852Z,98677.53
2018-04-12T04:40:51.656Z,98681.22
2018-04-12T04:43:19.481Z,98682.27
2018-04-12T04:45:47.249Z,98687.55
2018-04-12T04:48:15.082Z,98691.63
2018-04-12T04:50:42.919Z,98691.09
2018-04-12T04:53:10.595Z,98693.58
2018-04-12T04:55:38.451Z,98698.81
2018-04-12T04:58:06.314Z,98688.84
2018-04-12T05:00:34.175Z,98691.23
2018-04-12T05:03:01.989Z,98684.16
2018-04-12T05:05:29.812Z,98681.92
2018-04-12T05:07:57.576Z,98674.06
2018-04-12T05:10:25.423Z,98669.97
2018-04-12T05:12:53.210Z,98667.76
2018-04-12T05:15:21.075Z,98664.88
2018-04-12T05:17:48.841Z,98657.70
2018-04-12T05:20:16.718Z,98664.40
2018-04-12T05:22:44.583Z,98673.97
2018-04-12T05:25:12.440Z,98677.69
2018-04-12T05:27:40.207Z,98694.06
2018-04-12T05:30:08.072Z,98688.21
2018-04-12T05:32:35.797Z,98688.72
2018-04-12T05:35:03.554Z,98694.27
2018-04-12T05:37:31.275Z,98695.14
2018-04-12T05:39:59.028Z,98700.23
2018-04-12T05:42:26.753Z,98695.23
2018-04-12T05:44:54.560Z,98693.38
2018-04-12T05:47:22.424Z,98689.92
2018-04-12T05:49:50.134Z,98687.41
2018-04-12T05:52:17.951Z,98677.52
2018-04-12T05:54:45.817Z,98678.94
2018-04-12T05:57:13.787Z,98673.67
2018-04-12T05:59:41.503Z,98663.34
2018-04-12T06:02:09.359Z,98661.62
2018-04-12T06:04:37.183Z,98662.39
2018-04-12T06:07:04.997Z,98668.53
2018-04-12T06:09:32.815Z,98675.03
2018-04-12T06:12:00.552Z,98684.27
2018-04-12T06:14:28.343Z,98685.46
2018-04-12T06:16:56.264Z,98681.04
2018-04-12T06:19:24.076Z,98675.97
2018-04-12T06:21:51.841Z,98682.08
2018-04-12T06:24:19.483Z,98671.95
2018-04-12T06:26:47.146Z,98674.62
2018-04-12T06:29:14.815Z,98670.05
2018-04-12T06:31:42.445Z,98664.45
2018-04-12T06:34:10.131Z,98658.97
2018-04-12T06:36:37.774Z,98666.86
2018-04-12T06:39:06.292Z,98659.03
2018-04-12T06:41:33.909Z,98657.83
2018-04-12T06:44:01.597Z,98662.59
2018-04-12T06:46:29.222Z,98661.84
2018-04-12T06:48:56.886Z,98664.64
2018-04-12T06:51:24.518Z,98669.77
2018-04-12T06:53:58.015Z,98665.26
2018-04-12T06:56:25.626Z,98663.55
2018-04-12T06:58:53.399Z,98661.82
2018-04-12T07:01:21.030Z,98654.05
2018-04-12T07:03:48.735Z,98652.11
2018-04-12T07:06:16.391Z,98653.77
2018-04-12T07:08:44.057Z,98650.55
2018-04-12T07:11:11.675Z,98659.98
2018-04-12T07:13:39.763Z,98654.91
2018-04-12T07:16:07.657Z,98646.80
2018-04-12T07:18:35.318Z,98636.13
2018-04-12T07:21:03.048Z,98654.91
2018-04-12T07:23:30.675Z,98658.61
2018-04-12T07:25:58.377Z,98659.06
2018-04-12T07:28:26.026Z,98659.98
2018-04-12T07:30:53.736Z,98654.27
2018-04-12T07:33:21.406Z,98646.17
2018-04-12T07:35:49.069Z,98640.47
2018-04-12T07:38:16.760Z,98645.66
2018-04-12T07:40:44.484Z,98647.22
2018-04-12T07:43:12.170Z,98644.91
2018-04-12T07:45:39.852Z,98637.00
2018-04-12T07:48:07.510Z,98640.11
2018-04-12T07:50:35.130Z,98646.58
2018-04-12T07:53:02.780Z,98642.20
2018-04-12T07:55:30.454Z,98638.66
2018-04-12T07:57:58.179Z,98640.20
2018-04-12T08:00:25.799Z,98639.47
2018-04-12T08:02:53.479Z,98638.65
2018-04-12T08:05:21.102Z,98635.92
2018-04-12T08:07:48.766Z,98633.75
2018-04-12T08:10:16.390Z,98633.07
2018-04-12T08:12:44.132Z,98625.98
2018-04-12T08:15:11.791Z,98628.98
2018-04-12T08:17:39.435Z,98632.05
2018-04-12T08:20:07.100Z,98626.16
2018-04-12T08:22:34.761Z,98632.34
2018-04-12T08:25:02.381Z,98620.90
2018-04-12T08:27:30.035Z,98633.06
2018-04-12T08:29:57.669Z,98633.08
2018-04-12T08:32:25.348Z,98635.31
2018-04-12T08:34:52.964Z,98631.47
2018-04-12T08:37:20.627Z,98635.18
2018-04-12T08:39:48.269Z,98637.27
2018-04-12T08:42:15.934Z,98650.50
2018-04-12T08:44:43.580Z,98642.48
2018-04-12T08:47:11.244Z,98643.83
2018-04-12T08:49:38.931Z,98637.77
2018-04-12T08:52:06.607Z,98641.43
2018-04-12T08:54:34.234Z,98636.13
2018-04-12T08:57:01.933Z,98635.63
2018-04-12T08:59:29.583Z,98647.70
2018-04-12T09:01:57.264Z,98655.15
2018-04-12T09:04:24.936Z,98663.25
2018-04-12T09:06:52.552Z,98659.77
2018-04-12T09:09:20.252Z,98668.87
2018-04-12T09:11:47.902Z,98669.25
2018-04-12T09:14:15.593Z,98669.10
2018-04-12T09:16:43.263Z,98676.48
2018-04-12T09:19:10.923Z,98684.14
2018-04-12T09:21:38.555Z,98683.91
2018-04-12T09:24:06.224Z,98688.45
2018-04-12T09:26:33.856Z,98693.86
2018-04-12T09:29:01.533Z,98694.52
2018-04-12T09:31:29.187Z,98707.78
2018-04-12T09:33:56.932Z,98704.29
2018-04-12T09:36:24.563Z,98717.73
2018-04-12T09:38:52.234Z,98706.26
2018-04-12T09:41:19.903Z,98718.00
2018-04-12T09:43:47.563Z,98732.80
2018-04-12T09:46:15.231Z,98743.19
2018-04-12T09:48:42.914Z,98752.95
2018-04-12T09:51:10.551Z,98762.27
2018-04-12T09:53:38.220Z,98764.45
2018-04-12T09:56:05.855Z,98759.63
2018-04-12T09:58:33.533Z,98755.89
2018-04-12T10:01:01.203Z,98751.72
2018-04-12T10:03:28.963Z,98755.74
2018-04-12T10:06:02.075Z,98756.80
2018-04-12T10:08:29.829Z,98759.37
2018-04-12T10:10:57.455Z,98764.17
2018-04-12T10:13:25.203Z,98766.83
2018-04-12T10:15:52.904Z,98778.22
2018-04-12T10:18:20.573Z,98772.84
2018-04-12T10:20:48.197Z,98773.18
2018-04-12T10:23:15.876Z,98773.36
2018-04-12T10:25:43.550Z,98790.53
2018-04-12T10:28:11.209Z,98792.01
2018-04-12T10:30:38.885Z,98788.55
2018-04-12T10:33:06.595Z,98788.46
2018-04-12T10:35:34.222Z,98781.28
2018-04-12T10:38:01.894Z,98787.09
2018-04-12T10:40:29.522Z,98793.12
2018-04-12T10:42:57.205Z,98784.64
2018-04-12T10:45:24.885Z,98784.66
2018-04-12T10:47:52.607Z,98785.52
2018-04-12T10:50:20.267Z,98780.35
2018-04-12T10:52:47.958Z,98783.10
2018-04-12T10:55:15.579Z,98789.00
2018-04-12T10:57:43.236Z,98792.98
2018-04-12T11:00:10.874Z,98776.61
2018-04-12T11:02:38.575Z,98770.53
2018-04-12T11:05:06.232Z,98763.59
2018-04-12T11:07:34.317Z,98765.97
2018-04-12T11:10:01.985Z,98769.34
2018-04-12T11:12:29.619Z,98774.77
2018-04-12T11:14:57.283Z,98778.21
2018-04-12T11:17:24.926Z,98779.23
2018-04-12T11:19:52.614Z,98783.41
2018-04-12T11:22:20.252Z,98786.26
2018-04-12T11:24:47.952Z,98787.14
2018-04-12T11:27:15.581Z,98785.66
2018-04-12T11:29:43.252Z,98783.79
2018-04-12T11:32:10.877Z,98791.23
2018-04-12T11:34:38.616Z,98786.64
2018-04-12T11:37:06.258Z,98780.98
2018-04-12T11:39:33.925Z,98779.88
2018-04-12T11:42:02.484Z,98777.88
2018-04-12T11:44:30.162Z,98780.98
2018-04-12T11:46:57.794Z,98784.53
2018-04-12T11:49:25.524Z,98769.09
2018-04-12T11:51:53.142Z,98762.48
2018-04-12T11:54:20.819Z,98754.19
2018-04-12T11:56:48.498Z,98743.58
2018-04-12T11:59:16.176Z,98738.75
2018-04-12T12:01:43.866Z,98751.22
2018-04-12T12:04:11.523Z,98745.67
2018-04-12T12:06:39.206Z,98750.34
2018-04-12T12:09:06.911Z,98750.39
2018-04-12T12:11:34.551Z,98747.53
2018-04-12T12:14:02.231Z,98739.71
2018-04-12T12:16:29.873Z,98748.77
2018-04-12T12:18:57.523Z,98734.06
2018-04-12T12:21:25.181Z,98738.75
2018-04-12T12:23:52.865Z,98723.34
2018-04-12T12:26:20.512Z,98724.47
2018-04-12T12:28:48.207Z,98720.05
2018-04-12T12:31:15.840Z,98722.28
2018-04-12T12:33:43.550Z,98727.66
2018-04-12T12:36:11.164Z,98733.97
2018-04-12T12:38:38.868Z,98734.93
2018-04-12T12:41:06.497Z,98722.55
2018-04-12T12:43:34.170Z,98739.74
2018-04-12T12:46:01.822Z,98767.66
2018-04-12T12:48:29.480Z,98781.73
2018-04-12T12:50:57.160Z,98803.20
2018-04-12T12:53:24.832Z,98814.92
2018-04-12T12:55:52.482Z,98817.92
2018-04-12T12:58:20.136Z,98817.89
2018-04-12T13:00:47.759Z,98818.77
2018-04-12T13:03:15.406Z,98817.23
2018-04-12T13:05:43.072Z,98809.46
2018-04-12T13:08:10.723Z,98802.95
2018-04-12T13:10:38.374Z,98810.92
2018-04-12T13:13:06.063Z,98807.25
2018-04-12T13:15:33.694Z,98809.85
2018-04-12T13:18:01.306Z,98798.25
2018-04-12T13:20:28.969Z,98804.14
2018-04-12T13:22:56.599Z,98798.05
2018-04-12T13:25:24.258Z,98804.94
2018-04-12T13:27:51.924Z,98814.19
2018-04-12T13:30:19.589Z,98817.88
2018-04-12T13:32:47.227Z,98812.36
2018-04-12T13:35:14.905Z,98817.20
2018-04-12T13:37:42.530Z,98809.22
2018-04-12T13:40:10.333Z,98804.13
2018-04-12T13:42:38.303Z,98815.86
2018-04-12T13:45:06.272Z,98808.41
2018-04-12T13:47:34.003Z,98810.44
2018-04-12T13:50:01.804Z,98812.75
2018-04-12T13:52:29.570Z,98819.36
2018-04-12T13:54:57.440Z,98816.16
2018-04-12T13:57:25.171Z,98818.56
2018-04-12T13:59:52.959Z,98826.48
2018-04-12T14:02:20.681Z,98835.42
2018-04-12T14:04:48.490Z,98832.29
2018-04-12T14:07:16.160Z,98828.95
2018-04-12T14:09:44.019Z,98830.28
2018-04-12T14:12:11.748Z,98829.89
2018-04-12T14:14:39.440Z,98838.64
2018-04-12T14:17:07.211Z,98844.72
2018-04-12T14:19:35.076Z,98844.14
2018-04-12T14:22:02.816Z,98842.48
2018-04-12T14:24:30.709Z,98841.23
2018-04-12T14:26:58.463Z,98836.30
2018-04-12T14:29:26.236Z,98839.00
2018-04-12T14:31:54.079Z,98838.41
2018-04-12T14:34:21.824Z,98830.64
2018-04-12T14:36:49.733Z,98839.47
2018-04-12T14:39:17.499Z,98834.01
2018-04-12T14:41:45.394Z,98841.64
2018-04-12T14:44:13.224Z,98844.27
2018-04-12T14:46:40.936Z,98845.52
2018-04-12T14:49:08.862Z,98838.68
2018-04-12T14:51:36.569Z,98836.55
2018-04-12T14:54:04.388Z,98834.29
2018-04-12T14:56:32.158Z,98833.96
2018-04-12T14:58:59.915Z,98837.83
2018-04-12T15:01:27.643Z,98835.66
2018-04-12T15:03:55.416Z,98837.33
2018-04-12T15:06:23.327Z,98838.80
2018-04-12T15:08:51.088Z,98842.99
2018-04-12T15:11:18.846Z,98843.06
2018-04-12T15:13:46.719Z,98843.83
2018-04-12T15:16:14.425Z,98838.12
2018-04-12T15:18:42.241Z,98845.41
2018-04-12T15:21:09.911Z,98844.54
2018-04-12T15:23:37.775Z,98845.82
2018-04-12T15:26:05.430Z,98837.88
2018-04-12T15:28:33.204Z,98836.53
2018-04-12T15:31:01.023Z,98843.04
2018-04-12T15:33:28.825Z,98847.33
2018-04-12T15:35:56.591Z,98848.86
2018-04-12T15:38:24.317Z,98850.56
2018-04-12T15:40:52.048Z,98841.34
2018-04-12T15:43:19.785Z,98842.80
2018-04-12T15:45:47.650Z,98851.91
2018-04-12T15:48:15.414Z,98844.88
2018-04-12T15:50:43.177Z,98839.69
2018-04-12T15:53:10.975Z,98841.25
2018-04-12T15:55:39.835Z,98840.63
2018-04-12T15:58:07.614Z,98833.40
2018-04-12T16:00:35.568Z,98847.27
2018-04-12T16:03:03.334Z,98839.27
2018-04-12T16:05:30.994Z,98842.61
2018-04-12T16:07:58.656Z,98846.26
2018-04-12T16:10:26.422Z,98841.56
2018-04-12T16:12:54.191Z,98834.80
2018-04-12T16:15:22.052Z,98835.63
2018-04-12T16:17:49.820Z,98832.55
2018-04-12T16:20:18.000Z,98836.77
2018-04-12T16:22:45.759Z,98838.86
2018-04-12T16:25:13.518Z,98842.20
2018-04-12T16:27:41.385Z,98848.60
2018-04-12T16:30:09.154Z,98851.97
2018-04-12T16:32:36.869Z,98860.63
2018-04-12T16:35:04.580Z,98859.33
2018-04-12T16:37:32.341Z,98861.52
2018-04-12T16:40:00.109Z,98858.40
2018-04-12T16:42:27.841Z,98854.83
2018-04-12T16:44:55.532Z,98845.91
2018-04-12T16:47:23.292Z,98846.34
2018-04-12T16:49:51.118Z,98849.66
2018-04-12T16:52:19.032Z,98848.26
2018-04-12T16:54:46.743Z,98851.25
2018-04-12T16:57:14.560Z,98852.78
2018-04-12T16:59:42.215Z,98850.63
2018-04-12T17:02:09.870Z,98856.36
2018-04-12T17:04:37.496Z,98854.78
2018-04-12T17:07:05.179Z,98854.95
2018-04-12T17:09:32.791Z,98851.55
2018-04-12T17:12:00.440Z,98862.11
2018-04-12T17:14:28.098Z,98861.23
2018-04-12T17:16:55.822Z,98870.39
2018-04-12T17:19:23.499Z,98864.45
2018-04-12T17:21:51.146Z,98867.03
2018-04-12T17:24:18.808Z,98871.88
2018-04-12T17:26:46.412Z,98870.41
2018-04-12T17:29:14.079Z,98862.22
2018-04-12T17:31:41.689Z,98863.91
2018-04-12T17:34:10.213Z,98865.27
2018-04-12T17:36:37.896Z,98862.80
2018-04-12T17:39:06.521Z,98862.24
2018-04-12T17:41:34.179Z,98862.06
2018-04-12T17:44:01.827Z,98863.84
2018-04-12T17:46:29.463Z,98864.17
2018-04-12T17:48:57.109Z,98856.36
2018-04-12T17:51:24.711Z,98855.96
2018-04-12T17:53:52.366Z,98861.06
2018-04-12T17:56:20.041Z,98869.25
2018-04-12T17:58:47.684Z,98875.11
2018-04-12T18:01:15.316Z,98877.02
2018-04-12T18:03:42.967Z,98874.38
2018-04-12T18:06:10.588Z,98876.70
2018-04-12T18:08:38.209Z,98874.95
2018-04-12T18:11:05.855Z,98875.55
2018-04-12T18:13:33.550Z,98877.15
2018-04-12T18:16:01.207Z,98885.54
2018-04-12T18:18:28.833Z,98890.15
2018-04-12T18:20:56.500Z,98892.97
2018-04-12T18:23:24.160Z,98897.20
2018-04-12T18:25:51.820Z,98899.62
2018-04-12T18:28:19.438Z,98901.56
2018-04-12T18:30:47.094Z,98898.16
2018-04-12T18:33:14.701Z,98898.81
2018-04-12T18:35:42.352Z,98898.48
2018-04-12T18:38:09.994Z,98902.15
2018-04-12T18:40:37.664Z,98899.78
2018-04-12T18:43:05.300Z,98908.98
2018-04-12T18:45:32.955Z,98911.69
2018-04-12T18:48:00.609Z,98925.32
2018-04-12T18:50:28.306Z,98927.65
2018-04-12T18:52:55.980Z,98927.21
2018-04-12T18:55:23.658Z,98923.84
2018-04-12T18:57:51.290Z,98927.13
2018-04-12T19:00:19.000Z,98927.78
2018-04-12T19:02:46.658Z,98929.02
2018-04-12T19:05:14.267Z,98923.13
2018-04-12T19:07:41.962Z,98926.19
2018-04-12T19:10:09.591Z,98927.53
2018-04-12T19:12:37.250Z,98930.33
2018-04-12T19:15:04.924Z,98934.72
2018-04-12T19:17:32.587Z,98935.86
2018-04-12T19:20:00.201Z,98931.22
2018-04-12T19:22:27.864Z,98933.39
2018-04-12T19:24:55.621Z,98918.27
2018-04-12T19:27:23.283Z,98922.62
2018-04-12T19:29:50.931Z,98916.82
2018-04-12T19:32:18.555Z,98924.78
2018-04-12T19:34:46.250Z,98909.06
2018-04-12T19:37:13.866Z,98911.55
2018-04-12T19:39:41.514Z,98912.91
2018-04-12T19:42:09.164Z,98910.75
2018-04-12T19:44:36.877Z,98913.47
2018-04-12T19:47:04.758Z,98918.14
2018-04-12T19:49:33.448Z,98913.91
2018-04-12T19:52:01.104Z,98922.37
2018-04-12T19:54:28.721Z,98929.30
2018-04-12T19:56:56.488Z,98923.86
2018-04-12T19:59:24.135Z,98926.80
2018-04-12T20:01:51.803Z,98927.87
2018-04-12T20:04:19.428Z,98930.45
2018-04-12T20:06:47.110Z,98928.08
2018-04-12T20:09:14.720Z,98921.88
2018-04-12T20:11:42.379Z,98911.76
2018-04-12T20:14:10.007Z,98902.47
2018-04-12T20:16:37.735Z,98907.01
2018-04-12T20:19:05.354Z,98907.70
2018-04-12T20:21:33.028Z,98904.64
2018-04-12T20:24:00.654Z,98904.42
2018-04-12T20:26:28.323Z,98911.87
2018-04-12T20:28:55.955Z,98908.61
2018-04-12T20:31:23.611Z,98912.46
2018-04-12T20:33:51.774Z,98914.74
2018-04-12T20:36:19.539Z,98913.98
2018-04-12T20:38:47.198Z,98922.16
2018-04-12T20:41:14.868Z,98916.28
2018-04-12T20:43:42.511Z,98916.34
2018-04-12T20:46:10.234Z,98906.30
2018-04-12T20:48:37.867Z,98900.88
2018-04-12T20:51:05.581Z,98908.26
2018-04-12T20:53:33.223Z,98914.74
2018-04-12T20:56:00.883Z,98927.36
2018-04-12T20:58:28.557Z,98933.98
2018-04-12T21:00:56.236Z,98929.62
2018-04-12T21:03:23.876Z,98940.55
2018-04-12T21:05:51.586Z,98932.38
2018-04-12T21:08:19.256Z,98929.18
2018-04-12T21:10:46.927Z,98924.23
2018-04-12T21:13:14.560Z,98918.14
2018-04-12T21:15:42.386Z,98918.19
2018-04-12T21:18:10.002Z,98913.99
2018-04-12T21:20:37.648Z,98912.77
2018-04-12T21:23:05.328Z,98913.50
2018-04-12T21:25:33.034Z,98909.06
2018-04-12T21:28:00.648Z,98904.97
2018-04-12T21:30:28.334Z,98895.73
2018-04-12T21:32:55.959Z,98894.98
2018-04-12T21:35:23.631Z,98901.95
2018-04-12T21:37:51.286Z,98902.30
2018-04-12T21:40:18.965Z,98897.39
2018-04-12T21:42:46.576Z,98892.98
2018-04-12T21:45:14.236Z,98890.50
2018-04-12T21:47:41.863Z,98876.38
2018-04-12T21:50:09.580Z,98875.73
2018-04-12T21:52:37.480Z,98882.58
2018-04-12T21:55:05.135Z,98881.16
2018-04-12T21:57:32.788Z,98886.35
2018-04-12T22:00:00.416Z,98900.83
2018-04-12T22:02:28.086Z,98900.20
2018-04-12T22:04:55.697Z,98903.91
2018-04-12T22:07:23.372Z,98905.94
2018-04-12T22:09:50.988Z,98904.20
2018-04-12T22:12:18.659Z,98919.69
2018-04-12T22:14:46.279Z,98923.32
2018-04-12T22:17:14.003Z,98922.00
2018-04-12T22:19:41.630Z,98936.16
2018-04-12T22:22:09.309Z,98934.64
2018-04-12T22:24:36.926Z,98933.61
2018-04-12T22:27:04.627Z,98935.34
2018-04-12T22:29:32.254Z,98933.75
2018-04-12T22:31:59.927Z,98936.02
2018-04-12T22:34:27.555Z,98937.78
2018-04-12T22:36:55.287Z,98942.14
2018-04-12T22:39:22.935Z,98945.58
2018-04-12T22:41:50.597Z,98943.85
2018-04-12T22:44:18.216Z,98935.32
2018-04-12T22:46:45.899Z,98917.57
2018-04-12T22:49:13.528Z,98925.36
2018-04-12T22:51:41.178Z,98926.97
2018-04-12T22:54:08.817Z,98928.06
2018-04-12T22:56:36.479Z,98932.23
2018-04-12T22:59:04.155Z,98926.83
2018-04-12T23:01:31.826Z,98921.01
2018-04-12T23:03:59.446Z,98931.26
2018-04-12T23:06:27.151Z,98927.84
2018-04-12T23:08:54.804Z,98925.56
2018-04-12T23:11:22.461Z,98927.19
2018-04-12T23:13:50.100Z,98936.95
2018-04-12T23:16:17.753Z,98928.57
2018-04-12T23:18:45.444Z,98929.28
2018-04-12T23:21:13.106Z,98923.92
2018-04-12T23:23:40.731Z,98926.34
2018-04-12T23:28:42.095Z,98927.94
2018-04-12T23:31:09.750Z,98930.45
2018-04-12T23:33:37.370Z,98912.84
2018-04-12T23:36:05.020Z,98918.55
2018-04-12T23:38:32.647Z,98925.56
2018-04-12T23:41:00.334Z,98934.30
2018-04-12T23:43:27.956Z,98928.44
2018-04-12T23:45:55.620Z,98931.80
2018-04-12T23:48:23.259Z,98928.80
2018-04-12T23:50:50.915Z,98929.41
2018-04-12T23:53:18.573Z,98929.58
2018-04-12T23:55:46.258Z,98942.09
2018-04-12T23:58:13.931Z,98938.92
